Maersk Nimes — VRFO7 — position and weather

sailwx.info

Track history (hours):
 
Tides and Currents Weather Stations Pressure Air Temp Water Temp Dewpoint Dewpoint Depression Visibility Wind Speed Wind Dir Waves Ship Positions

Maersk Nimes

Last reported at 2016-Feb-14 16:32 UTC. Time now 2016-Feb-14 16:55 UTC.
Position N 59°53' E 030°11'.

Length 210 m; draft 9.9 m.

Type: Cargo ship. MMSI: 477559200.

Date/timePositionNaut miles runAvg speedWind from/ knotsBaromVisibWave heightAir tempDewpointWater temp
2016-Feb-14 16:32N 59°53' E 030°11'0 0.0
2016-Feb-14 15:32N 59°53' E 030°11'0 0.0
2016-Feb-14 14:33N 59°53' E 030°11'1 0.9
2016-Feb-14 13:33N 59°53' E 030°13'0 0.2
2016-Feb-14 12:32N 59°53' E 030°13'0 0.0
2016-Feb-14 11:32N 59°53' E 030°13'0 0.0
2016-Feb-14 10:32N 59°53' E 030°13'0 0.0
2016-Feb-14 09:32N 59°53' E 030°13'0 0.0
2016-Feb-14 08:32N 59°53' E 030°13'0 0.0
2016-Feb-14 07:32N 59°53' E 030°13'0 0.0
2016-Feb-14 06:32N 59°53' E 030°13'0 0.0
2016-Feb-14 05:32N 59°53' E 030°13'0 0.0
2016-Feb-14 04:32N 59°53' E 030°13'0 0.0
2016-Feb-14 03:32N 59°53' E 030°13'0 0.0
2016-Feb-14 02:32N 59°53' E 030°13'0 0.0
2016-Feb-14 01:32N 59°53' E 030°13'0 0.0
2016-Feb-14 00:32N 59°53' E 030°13'0 0.0
2016-Feb-13 23:32N 59°53' E 030°13'0 0.0
2016-Feb-13 22:32N 59°53' E 030°13'0 0.0
2016-Feb-13 21:32N 59°53' E 030°13'0 0.0
2016-Feb-13 20:32N 59°53' E 030°13'0 0.0
2016-Feb-13 19:32N 59°53' E 030°13'0 0.0
2016-Feb-13 18:32N 59°53' E 030°13'0 0.0
2016-Feb-13 17:32N 59°53' E 030°13'0 0.0
2016-Feb-13 16:32N 59°53' E 030°13'0 0.0
2016-Feb-13 15:32N 59°53' E 030°13'1 0.6
2016-Feb-13 14:33N 59°53' E 030°12'9 9.3
2016-Feb-13 13:33N 59°56' E 029°55'1110.7
2016-Feb-13 12:33N 60°01' E 029°35'23 9.9
2016-Feb-13 10:16N 60°02' E 028°50'1014.3
2016-Feb-13 09:33N 60°03' E 028°30'1413.6
2016-Feb-13 08:33N 60°09' E 028°05'1313.4
2016-Feb-13 07:33N 60°08' E 027°38'1515.0
2016-Feb-13 06:33N 60°01' E 027°12'1413.7
2016-Feb-13 05:33N 59°59' E 026°45'1514.6
2016-Feb-13 04:34N 59°56' E 026°17'4614.5
2016-Feb-13 01:21N 59°46' E 024°46'1214.6
2016-Feb-13 00:32N 59°44' E 024°23'1514.8
2016-Feb-12 23:33N 59°39' E 023°56'1514.9
2016-Feb-12 22:33N 59°34' E 023°28'35414.6
2016-Feb-11 22:18N 55°36' E 015°20'1215.6
2016-Feb-11 21:34N 55°31' E 015°02'1615.6
2016-Feb-11 20:34N 55°22' E 014°39'1515.3
2016-Feb-11 19:33N 55°11' E 014°22'1514.9
2016-Feb-11 18:33N 55°00' E 014°03'1615.4
2016-Feb-11 17:33N 54°55' E 013°37'1715.6
2016-Feb-11 16:29N 54°50' E 013°10'1415.2
2016-Feb-11 15:33N 54°46' E 012°47'2114.5
2016-Feb-11 14:06N 54°33' E 012°16'713.2
2016-Feb-11 13:33N 54°27' E 012°12'1414.2
2016-Feb-11 12:33N 54°25' E 011°47'1515.0
2016-Feb-11 11:33N 54°31' E 011°24'1514.9
2016-Feb-11 10:33N 54°36' E 010°59'1312.8
2016-Feb-11 09:33N 54°47' E 010°49'1414.0
2016-Feb-11 08:33N 54°60' E 010°59'1413.8
2016-Feb-11 07:33N 55°13' E 011°06'8213.6
2016-Feb-11 01:33N 56°33' E 011°38'1515.0
2016-Feb-11 00:33N 56°46' E 011°51'916.5
2016-Feb-11 00:00N 56°54' E 011°42'614.3 300 / 7992.0 5.4 0.5 4.0 1.4
2016-Feb-10 23:33N 57°00' E 011°41'1515.2
2016-Feb-10 22:33N 57°15' E 011°32'1515.5
2016-Feb-10 21:33N 57°29' E 011°21'1514.9
2016-Feb-10 20:34N 57°39' E 011°01'1514.7
2016-Feb-10 19:34N 57°47' E 010°38'1413.8
2016-Feb-10 18:33N 57°47' E 010°12'1413.8
2016-Feb-10 17:33N 57°43' E 009°47'1413.6
2016-Feb-10 16:33N 57°37' E 009°24'13813.5
2016-Feb-10 06:23N 55°45' E 006°58'6316.1
2016-Feb-10 02:27N 54°42' E 007°03'1517.0
2016-Feb-10 01:33N 54°28' E 007°15'1616.3
2016-Feb-10 00:33N 54°14' E 007°27'1615.9
2016-Feb-09 23:34N 53°60' E 007°39'1212.2
2016-Feb-09 22:33N 53°52' E 007°55'1312.9
2016-Feb-09 21:33N 53°45' E 008°13'1312.7
2016-Feb-09 20:33N 53°36' E 008°30'1 1.4
2016-Feb-09 19:32N 53°35' E 008°31'0 0.0
2016-Feb-09 18:32N 53°35' E 008°31'0 0.0
2016-Feb-09 17:32N 53°35' E 008°31'0 0.0
2016-Feb-09 16:32N 53°35' E 008°31'0 0.0
2016-Feb-09 15:32N 53°35' E 008°31'0 0.0
2016-Feb-09 14:32N 53°35' E 008°31'0 0.0
2016-Feb-09 13:32N 53°35' E 008°31'0 0.0
2016-Feb-09 12:29N 53°35' E 008°31'0 0.0
2016-Feb-09 11:32N 53°35' E 008°31'0 0.0
2016-Feb-09 10:32N 53°35' E 008°31'0 0.0
2016-Feb-09 09:32N 53°35' E 008°31'0 0.0
2016-Feb-09 08:32N 53°35' E 008°31'0 0.0
2016-Feb-09 07:32N 53°35' E 008°31'0 0.0
2016-Feb-09 06:32N 53°35' E 008°31'0 0.0
2016-Feb-09 05:32N 53°35' E 008°31'0 0.0
2016-Feb-09 04:32N 53°35' E 008°31'0 0.0
2016-Feb-09 03:32N 53°35' E 008°31'0 0.0
2016-Feb-09 02:32N 53°35' E 008°31'0 0.0
2016-Feb-09 01:32N 53°35' E 008°32'0 0.1
2016-Feb-09 00:33N 53°35' E 008°31'9 9.1
2016-Feb-08 23:33N 53°42' E 008°20'1616.1
2016-Feb-08 22:34N 53°51' E 007°58'7 7.0
2016-Feb-08 21:33N 53°55' E 007°48'0 0.0
2016-Feb-08 20:33N 53°55' E 007°48'1 1.3
2016-Feb-08 19:33N 53°55' E 007°46'1 1.3
2016-Feb-08 18:33N 53°55' E 007°48'0 0.1
2016-Feb-08 17:31N 53°55' E 007°48'0 0.0
2016-Feb-08 16:31N 53°55' E 007°48'0 0.0
2016-Feb-08 15:31N 53°55' E 007°48'0 0.0
2016-Feb-08 14:31N 53°55' E 007°48'0 0.0
2016-Feb-08 13:31N 53°55' E 007°48'0 0.0
2016-Feb-08 12:28N 53°55' E 007°48'0 0.0
2016-Feb-08 11:31N 53°55' E 007°48'0 0.0
2016-Feb-08 10:28N 53°55' E 007°48'0 0.0
2016-Feb-08 09:31N 53°55' E 007°48'0 0.0
2016-Feb-08 08:31N 53°55' E 007°48'0 0.0
2016-Feb-08 07:31N 53°55' E 007°48'0 0.0
2016-Feb-08 06:31N 53°55' E 007°48'0 0.1
2016-Feb-08 05:31N 53°55' E 007°48'0 0.0
2016-Feb-08 04:31N 53°55' E 007°48'0 0.0
2016-Feb-08 03:31N 53°55' E 007°48'0 0.0
2016-Feb-08 02:31N 53°55' E 007°48'0 0.0
2016-Feb-08 01:31N 53°55' E 007°48'5 4.8
2016-Feb-08 00:33N 53°58' E 007°55'1312.5
2016-Feb-07 23:33N 54°01' E 008°15'1212.3
2016-Feb-07 22:33N 53°58' E 008°36'1111.1
2016-Feb-07 21:33N 53°50' E 008°50'1111.1
2016-Feb-07 20:33N 53°53' E 009°08'1110.9
2016-Feb-07 19:33N 53°47' E 009°23'1413.8
2016-Feb-07 18:33N 53°35' E 009°37'1010.4
2016-Feb-07 17:33N 53°33' E 009°53'4 3.7
2016-Feb-07 16:33N 53°32' E 009°60'0 0.0
2016-Feb-07 15:33N 53°32' E 009°60'0 0.0
2016-Feb-07 14:33N 53°32' E 009°60'0 0.0
2016-Feb-07 13:34N 53°32' E 009°60'0 0.0
2016-Feb-07 12:32N 53°32' E 009°60'0 0.0
2016-Feb-07 11:34N 53°32' E 009°60'0 0.0
2016-Feb-07 10:33N 53°32' E 009°60'0 0.0
2016-Feb-07 09:32N 53°32' E 009°60'0 0.0
2016-Feb-07 08:32N 53°32' E 009°60'0 0.0
2016-Feb-07 07:32N 53°32' E 009°60'0 0.0
2016-Feb-07 06:32N 53°32' E 009°60'0 0.0
2016-Feb-07 05:32N 53°32' E 009°60'0 0.0
2016-Feb-07 04:33N 53°32' E 009°60'5 5.4
2016-Feb-07 03:33N 53°33' E 009°51'9 8.9
2016-Feb-07 02:33N 53°35' E 009°36'1313.4
2016-Feb-07 01:33N 53°46' E 009°24'1312.9
2016-Feb-07 00:33N 53°52' E 009°04'1312.9
2016-Feb-06 23:33N 53°53' E 008°42'1313.0
2016-Feb-06 22:33N 53°59' E 008°23'1514.5
2016-Feb-06 21:33N 53°59' E 007°58'1313.5
2016-Feb-06 20:34N 53°56' E 007°36'1312.9
2016-Feb-06 19:32N 53°53' E 007°14'1312.9
2016-Feb-06 18:34N 53°50' E 006°53'1313.3
2016-Feb-06 17:33N 53°46' E 006°31'1313.2
2016-Feb-06 16:34N 53°43' E 006°10'1313.2
2016-Feb-06 15:34N 53°38' E 005°49'1313.3
2016-Feb-06 14:34N 53°34' E 005°28'1313.4
2016-Feb-06 13:33N 53°30' E 005°06'2512.5
2016-Feb-06 11:31N 53°14' E 004°34'1313.5
2016-Feb-06 10:33N 53°02' E 004°24'1313.3
2016-Feb-06 09:34N 52°50' E 004°13'1513.7
2016-Feb-06 08:29N 52°38' E 003°59'1313.3
2016-Feb-06 07:32N 52°26' E 003°53'1313.1
2016-Feb-06 06:34N 52°13' E 003°53'1211.9
2016-Feb-06 05:34N 52°02' E 003°57'1111.5
2016-Feb-06 04:33N 51°56' E 004°13'7 7.2
2016-Feb-06 03:33N 51°54' E 004°24'1 1.1
2016-Feb-06 02:31N 51°54' E 004°26'0 0.0
2016-Feb-06 01:33N 51°54' E 004°26'0 0.0
2016-Feb-06 00:33N 51°54' E 004°26'0 0.0
2016-Feb-05 23:31N 51°54' E 004°26'0 0.0
2016-Feb-05 22:31N 51°54' E 004°26'0 0.0
2016-Feb-05 21:31N 51°54' E 004°26'0 0.0
2016-Feb-05 20:31N 51°54' E 004°26'0 0.0
2016-Feb-05 19:31N 51°53' E 004°26'0 0.0
2016-Feb-05 18:31N 51°54' E 004°26'0 0.0
2016-Feb-05 17:31N 51°54' E 004°26'0 0.0
2016-Feb-05 16:31N 51°53' E 004°26'0 0.0
2016-Feb-05 15:31N 51°54' E 004°26'0 0.0
2016-Feb-05 14:33N 51°54' E 004°26'1 0.7
2016-Feb-05 13:33N 51°54' E 004°25'7 7.2
2016-Feb-05 12:33N 51°55' E 004°14'8 8.2
2016-Feb-05 11:33N 51°59' E 004°02'9 8.9
2016-Feb-05 10:33N 51°60' E 003°48'1312.8
2016-Feb-05 09:33N 51°56' E 003°28'3716.9
2016-Feb-05 07:22N 51°42' E 002°33'1417.2
2016-Feb-05 06:33N 51°32' E 002°17'1616.1
2016-Feb-05 05:33N 51°17' E 002°06'1615.8
2016-Feb-05 04:33N 51°07' E 001°46'1615.9
2016-Feb-05 03:33N 50°57' E 001°28'1615.6
2016-Feb-05 02:33N 50°42' E 001°20'  
Track history (hours):
 
Tides and Currents Weather Stations Pressure Air Temp Water Temp Dewpoint Dewpoint Depression Visibility Wind Speed Wind Dir Waves Ship Positions

Maersk Nimes

Last reported at 2016-Feb-14 16:32 UTC. Time now 2016-Feb-14 16:55 UTC.
Position N 59°53' E 030°11'.

Length 210 m; draft 9.9 m.

Type: Cargo ship. MMSI: 477559200.

Date/timePositionNaut miles runAvg speedWind from/ knotsBaromVisibWave heightAir tempDewpointWater temp
2016-Feb-14 16:32N 59°53' E 030°11'0 0.0
2016-Feb-14 15:32N 59°53' E 030°11'0 0.0
2016-Feb-14 14:33N 59°53' E 030°11'1 0.9
2016-Feb-14 13:33N 59°53' E 030°13'0 0.2
2016-Feb-14 12:32N 59°53' E 030°13'0 0.0
2016-Feb-14 11:32N 59°53' E 030°13'0 0.0
2016-Feb-14 10:32N 59°53' E 030°13'0 0.0
2016-Feb-14 09:32N 59°53' E 030°13'0 0.0
2016-Feb-14 08:32N 59°53' E 030°13'0 0.0
2016-Feb-14 07:32N 59°53' E 030°13'0 0.0
2016-Feb-14 06:32N 59°53' E 030°13'0 0.0
2016-Feb-14 05:32N 59°53' E 030°13'0 0.0
2016-Feb-14 04:32N 59°53' E 030°13'0 0.0
2016-Feb-14 03:32N 59°53' E 030°13'0 0.0
2016-Feb-14 02:32N 59°53' E 030°13'0 0.0
2016-Feb-14 01:32N 59°53' E 030°13'0 0.0
2016-Feb-14 00:32N 59°53' E 030°13'0 0.0
2016-Feb-13 23:32N 59°53' E 030°13'0 0.0
2016-Feb-13 22:32N 59°53' E 030°13'0 0.0
2016-Feb-13 21:32N 59°53' E 030°13'0 0.0
2016-Feb-13 20:32N 59°53' E 030°13'0 0.0
2016-Feb-13 19:32N 59°53' E 030°13'0 0.0
2016-Feb-13 18:32N 59°53' E 030°13'0 0.0
2016-Feb-13 17:32N 59°53' E 030°13'0 0.0
2016-Feb-13 16:32N 59°53' E 030°13'0 0.0
2016-Feb-13 15:32N 59°53' E 030°13'1 0.6
2016-Feb-13 14:33N 59°53' E 030°12'9 9.3
2016-Feb-13 13:33N 59°56' E 029°55'1110.7
2016-Feb-13 12:33N 60°01' E 029°35'23 9.9
2016-Feb-13 10:16N 60°02' E 028°50'1014.3
2016-Feb-13 09:33N 60°03' E 028°30'1413.6
2016-Feb-13 08:33N 60°09' E 028°05'1313.4
2016-Feb-13 07:33N 60°08' E 027°38'1515.0
2016-Feb-13 06:33N 60°01' E 027°12'1413.7
2016-Feb-13 05:33N 59°59' E 026°45'1514.6
2016-Feb-13 04:34N 59°56' E 026°17'4614.5
2016-Feb-13 01:21N 59°46' E 024°46'1214.6
2016-Feb-13 00:32N 59°44' E 024°23'1514.8
2016-Feb-12 23:33N 59°39' E 023°56'1514.9
2016-Feb-12 22:33N 59°34' E 023°28'35414.6
2016-Feb-11 22:18N 55°36' E 015°20'1215.6
2016-Feb-11 21:34N 55°31' E 015°02'1615.6
2016-Feb-11 20:34N 55°22' E 014°39'1515.3
2016-Feb-11 19:33N 55°11' E 014°22'1514.9
2016-Feb-11 18:33N 55°00' E 014°03'1615.4
2016-Feb-11 17:33N 54°55' E 013°37'1715.6
2016-Feb-11 16:29N 54°50' E 013°10'1415.2
2016-Feb-11 15:33N 54°46' E 012°47'2114.5
2016-Feb-11 14:06N 54°33' E 012°16'713.2
2016-Feb-11 13:33N 54°27' E 012°12'1414.2
2016-Feb-11 12:33N 54°25' E 011°47'1515.0
2016-Feb-11 11:33N 54°31' E 011°24'1514.9
2016-Feb-11 10:33N 54°36' E 010°59'1312.8
2016-Feb-11 09:33N 54°47' E 010°49'1414.0
2016-Feb-11 08:33N 54°60' E 010°59'1413.8
2016-Feb-11 07:33N 55°13' E 011°06'8213.6
2016-Feb-11 01:33N 56°33' E 011°38'1515.0
2016-Feb-11 00:33N 56°46' E 011°51'916.5
2016-Feb-11 00:00N 56°54' E 011°42'614.3 300 / 7992.0 5.4 0.5 4.0 1.4
2016-Feb-10 23:33N 57°00' E 011°41'1515.2
2016-Feb-10 22:33N 57°15' E 011°32'1515.5
2016-Feb-10 21:33N 57°29' E 011°21'1514.9
2016-Feb-10 20:34N 57°39' E 011°01'1514.7
2016-Feb-10 19:34N 57°47' E 010°38'1413.8
2016-Feb-10 18:33N 57°47' E 010°12'1413.8
2016-Feb-10 17:33N 57°43' E 009°47'1413.6
2016-Feb-10 16:33N 57°37' E 009°24'13813.5
2016-Feb-10 06:23N 55°45' E 006°58'6316.1
2016-Feb-10 02:27N 54°42' E 007°03'1517.0
2016-Feb-10 01:33N 54°28' E 007°15'1616.3
2016-Feb-10 00:33N 54°14' E 007°27'1615.9
2016-Feb-09 23:34N 53°60' E 007°39'1212.2
2016-Feb-09 22:33N 53°52' E 007°55'1312.9
2016-Feb-09 21:33N 53°45' E 008°13'1312.7
2016-Feb-09 20:33N 53°36' E 008°30'1 1.4
2016-Feb-09 19:32N 53°35' E 008°31'0 0.0
2016-Feb-09 18:32N 53°35' E 008°31'0 0.0
2016-Feb-09 17:32N 53°35' E 008°31'0 0.0
2016-Feb-09 16:32N 53°35' E 008°31'0 0.0
2016-Feb-09 15:32N 53°35' E 008°31'0 0.0
2016-Feb-09 14:32N 53°35' E 008°31'0 0.0
2016-Feb-09 13:32N 53°35' E 008°31'0 0.0
2016-Feb-09 12:29N 53°35' E 008°31'0 0.0
2016-Feb-09 11:32N 53°35' E 008°31'0 0.0
2016-Feb-09 10:32N 53°35' E 008°31'0 0.0
2016-Feb-09 09:32N 53°35' E 008°31'0 0.0
2016-Feb-09 08:32N 53°35' E 008°31'0 0.0
2016-Feb-09 07:32N 53°35' E 008°31'0 0.0
2016-Feb-09 06:32N 53°35' E 008°31'0 0.0
2016-Feb-09 05:32N 53°35' E 008°31'0 0.0
2016-Feb-09 04:32N 53°35' E 008°31'0 0.0
2016-Feb-09 03:32N 53°35' E 008°31'0 0.0
2016-Feb-09 02:32N 53°35' E 008°31'0 0.0
2016-Feb-09 01:32N 53°35' E 008°32'0 0.1
2016-Feb-09 00:33N 53°35' E 008°31'9 9.1
2016-Feb-08 23:33N 53°42' E 008°20'1616.1
2016-Feb-08 22:34N 53°51' E 007°58'7 7.0
2016-Feb-08 21:33N 53°55' E 007°48'0 0.0
2016-Feb-08 20:33N 53°55' E 007°48'1 1.3
2016-Feb-08 19:33N 53°55' E 007°46'1 1.3
2016-Feb-08 18:33N 53°55' E 007°48'0 0.1
2016-Feb-08 17:31N 53°55' E 007°48'0 0.0
2016-Feb-08 16:31N 53°55' E 007°48'0 0.0
2016-Feb-08 15:31N 53°55' E 007°48'0 0.0
2016-Feb-08 14:31N 53°55' E 007°48'0 0.0
2016-Feb-08 13:31N 53°55' E 007°48'0 0.0
2016-Feb-08 12:28N 53°55' E 007°48'0 0.0
2016-Feb-08 11:31N 53°55' E 007°48'0 0.0
2016-Feb-08 10:28N 53°55' E 007°48'0 0.0
2016-Feb-08 09:31N 53°55' E 007°48'0 0.0
2016-Feb-08 08:31N 53°55' E 007°48'0 0.0
2016-Feb-08 07:31N 53°55' E 007°48'0 0.0
2016-Feb-08 06:31N 53°55' E 007°48'0 0.1
2016-Feb-08 05:31N 53°55' E 007°48'0 0.0
2016-Feb-08 04:31N 53°55' E 007°48'0 0.0
2016-Feb-08 03:31N 53°55' E 007°48'0 0.0
2016-Feb-08 02:31N 53°55' E 007°48'0 0.0
2016-Feb-08 01:31N 53°55' E 007°48'5 4.8
2016-Feb-08 00:33N 53°58' E 007°55'1312.5
2016-Feb-07 23:33N 54°01' E 008°15'1212.3
2016-Feb-07 22:33N 53°58' E 008°36'1111.1
2016-Feb-07 21:33N 53°50' E 008°50'1111.1
2016-Feb-07 20:33N 53°53' E 009°08'1110.9
2016-Feb-07 19:33N 53°47' E 009°23'1413.8
2016-Feb-07 18:33N 53°35' E 009°37'1010.4
2016-Feb-07 17:33N 53°33' E 009°53'4 3.7
2016-Feb-07 16:33N 53°32' E 009°60'0 0.0
2016-Feb-07 15:33N 53°32' E 009°60'0 0.0
2016-Feb-07 14:33N 53°32' E 009°60'0 0.0
2016-Feb-07 13:34N 53°32' E 009°60'0 0.0
2016-Feb-07 12:32N 53°32' E 009°60'0 0.0
2016-Feb-07 11:34N 53°32' E 009°60'0 0.0
2016-Feb-07 10:33N 53°32' E 009°60'0 0.0
2016-Feb-07 09:32N 53°32' E 009°60'0 0.0
2016-Feb-07 08:32N 53°32' E 009°60'0 0.0
2016-Feb-07 07:32N 53°32' E 009°60'0 0.0
2016-Feb-07 06:32N 53°32' E 009°60'0 0.0
2016-Feb-07 05:32N 53°32' E 009°60'0 0.0
2016-Feb-07 04:33N 53°32' E 009°60'5 5.4
2016-Feb-07 03:33N 53°33' E 009°51'9 8.9
2016-Feb-07 02:33N 53°35' E 009°36'1313.4
2016-Feb-07 01:33N 53°46' E 009°24'1312.9
2016-Feb-07 00:33N 53°52' E 009°04'1312.9
2016-Feb-06 23:33N 53°53' E 008°42'1313.0
2016-Feb-06 22:33N 53°59' E 008°23'1514.5
2016-Feb-06 21:33N 53°59' E 007°58'1313.5
2016-Feb-06 20:34N 53°56' E 007°36'1312.9
2016-Feb-06 19:32N 53°53' E 007°14'1312.9
2016-Feb-06 18:34N 53°50' E 006°53'1313.3
2016-Feb-06 17:33N 53°46' E 006°31'1313.2
2016-Feb-06 16:34N 53°43' E 006°10'1313.2
2016-Feb-06 15:34N 53°38' E 005°49'1313.3
2016-Feb-06 14:34N 53°34' E 005°28'1313.4
2016-Feb-06 13:33N 53°30' E 005°06'2512.5
2016-Feb-06 11:31N 53°14' E 004°34'1313.5
2016-Feb-06 10:33N 53°02' E 004°24'1313.3
2016-Feb-06 09:34N 52°50' E 004°13'1513.7
2016-Feb-06 08:29N 52°38' E 003°59'1313.3
2016-Feb-06 07:32N 52°26' E 003°53'1313.1
2016-Feb-06 06:34N 52°13' E 003°53'1211.9
2016-Feb-06 05:34N 52°02' E 003°57'1111.5
2016-Feb-06 04:33N 51°56' E 004°13'7 7.2
2016-Feb-06 03:33N 51°54' E 004°24'1 1.1
2016-Feb-06 02:31N 51°54' E 004°26'0 0.0
2016-Feb-06 01:33N 51°54' E 004°26'0 0.0
2016-Feb-06 00:33N 51°54' E 004°26'0 0.0
2016-Feb-05 23:31N 51°54' E 004°26'0 0.0
2016-Feb-05 22:31N 51°54' E 004°26'0 0.0
2016-Feb-05 21:31N 51°54' E 004°26'0 0.0
2016-Feb-05 20:31N 51°54' E 004°26'0 0.0
2016-Feb-05 19:31N 51°53' E 004°26'0 0.0
2016-Feb-05 18:31N 51°54' E 004°26'0 0.0
2016-Feb-05 17:31N 51°54' E 004°26'0 0.0
2016-Feb-05 16:31N 51°53' E 004°26'0 0.0
2016-Feb-05 15:31N 51°54' E 004°26'0 0.0
2016-Feb-05 14:33N 51°54' E 004°26'1 0.7
2016-Feb-05 13:33N 51°54' E 004°25'7 7.2
2016-Feb-05 12:33N 51°55' E 004°14'8 8.2
2016-Feb-05 11:33N 51°59' E 004°02'9 8.9
2016-Feb-05 10:33N 51°60' E 003°48'1312.8
2016-Feb-05 09:33N 51°56' E 003°28'3716.9
2016-Feb-05 07:22N 51°42' E 002°33'1417.2
2016-Feb-05 06:33N 51°32' E 002°17'1616.1
2016-Feb-05 05:33N 51°17' E 002°06'1615.8
2016-Feb-05 04:33N 51°07' E 001°46'1615.9
2016-Feb-05 03:33N 50°57' E 001°28'1615.6
2016-Feb-05 02:33N 50°42' E 001°20'  

Dump ship's entire track history